sensor_id;sensor_type;location;lat;lon;timestamp;temperature;humidity
22065;DHT22;11197;53.110;8.468;2023-09-07T00:00:51;19.30;99.90
22065;DHT22;11197;53.110;8.468;2023-09-07T00:03:16;19.20;99.90
22065;DHT22;11197;53.110;8.468;2023-09-07T00:05:42;19.20;99.90
22065;DHT22;11197;53.110;8.468;2023-09-07T00:08:07;19.20;99.90
22065;DHT22;11197;53.110;8.468;2023-09-07T00:10:33;19.10;99.90
22065;DHT22;11197;53.110;8.468;2023-09-07T00:13:03;19.10;99.90
22065;DHT22;11197;53.110;8.468;2023-09-07T00:15:30;19.10;99.90
22065;DHT22;11197;53.110;8.468;2023-09-07T00:17:56;19.10;99.90
22065;DHT22;11197;53.110;8.468;2023-09-07T00:20:22;19.00;99.90
22065;DHT22;11197;53.110;8.468;2023-09-07T00:22:49;19.00;99.90
22065;DHT22;11197;53.110;8.468;2023-09-07T00:25:14;18.90;99.90
22065;DHT22;11197;53.110;8.468;2023-09-07T00:27:40;18.90;99.90
22065;DHT22;11197;53.110;8.468;2023-09-07T00:30:06;18.90;99.90
22065;DHT22;11197;53.110;8.468;2023-09-07T00:32:36;18.80;99.90
22065;DHT22;11197;53.110;8.468;2023-09-07T00:35:02;18.80;99.90
22065;DHT22;11197;53.110;8.468;2023-09-07T00:37:28;18.80;99.90
22065;DHT22;11197;53.110;8.468;2023-09-07T00:39:54;18.70;99.90
22065;DHT22;11197;53.110;8.468;2023-09-07T00:42:20;18.70;99.90
22065;DHT22;11197;53.110;8.468;2023-09-07T00:44:45;18.70;99.90
22065;DHT22;11197;53.110;8.468;2023-09-07T00:47:12;18.70;99.90
22065;DHT22;11197;53.110;8.468;2023-09-07T00:49:39;18.60;99.90
22065;DHT22;11197;53.110;8.468;2023-09-07T00:52:05;18.60;99.90
22065;DHT22;11197;53.110;8.468;2023-09-07T00:54:31;18.50;99.90
22065;DHT22;11197;53.110;8.468;2023-09-07T00:56:58;18.50;99.90
22065;DHT22;11197;53.110;8.468;2023-09-07T00:59:24;18.50;99.90
22065;DHT22;11197;53.110;8.468;2023-09-07T01:01:50;18.50;99.90
22065;DHT22;11197;53.110;8.468;2023-09-07T01:04:18;18.50;99.90
22065;DHT22;11197;53.110;8.468;2023-09-07T01:06:49;18.40;99.90
22065;DHT22;11197;53.110;8.468;2023-09-07T01:09:23;18.40;99.90
22065;DHT22;11197;53.110;8.468;2023-09-07T01:11:49;18.40;99.90
22065;DHT22;11197;53.110;8.468;2023-09-07T01:14:16;18.40;99.90
22065;DHT22;11197;53.110;8.468;2023-09-07T01:16:41;18.30;99.90
22065;DHT22;11197;53.110;8.468;2023-09-07T01:19:07;18.30;99.90
22065;DHT22;11197;53.110;8.468;2023-09-07T01:21:35;18.30;99.90
22065;DHT22;11197;53.110;8.468;2023-09-07T01:24:07;18.30;99.90
22065;DHT22;11197;53.110;8.468;2023-09-07T01:26:37;18.20;99.90
22065;DHT22;11197;53.110;8.468;2023-09-07T01:29:07;18.20;99.90
22065;DHT22;11197;53.110;8.468;2023-09-07T01:31:38;18.20;99.90
22065;DHT22;11197;53.110;8.468;2023-09-07T01:34:07;18.20;99.90
22065;DHT22;11197;53.110;8.468;2023-09-07T01:36:34;18.20;99.90
22065;DHT22;11197;53.110;8.468;2023-09-07T01:39:03;18.10;99.90
22065;DHT22;11197;53.110;8.468;2023-09-07T01:41:29;18.10;99.90
22065;DHT22;11197;53.110;8.468;2023-09-07T01:43:56;18.10;99.90
22065;DHT22;11197;53.110;8.468;2023-09-07T01:46:21;18.10;99.90
22065;DHT22;11197;53.110;8.468;2023-09-07T01:48:47;18.00;99.90
22065;DHT22;11197;53.110;8.468;2023-09-07T01:51:13;18.00;99.90
22065;DHT22;11197;53.110;8.468;2023-09-07T01:53:38;18.00;99.90
22065;DHT22;11197;53.110;8.468;2023-09-07T01:56:04;18.00;99.90
22065;DHT22;11197;53.110;8.468;2023-09-07T01:58:30;18.00;99.90
22065;DHT22;11197;53.110;8.468;2023-09-07T02:00:59;17.90;99.90
22065;DHT22;11197;53.110;8.468;2023-09-07T02:03:25;17.90;99.90
22065;DHT22;11197;53.110;8.468;2023-09-07T02:05:52;17.90;99.90
22065;DHT22;11197;53.110;8.468;2023-09-07T02:08:19;17.90;99.90
22065;DHT22;11197;53.110;8.468;2023-09-07T02:10:44;17.80;99.90
22065;DHT22;11197;53.110;8.468;2023-09-07T02:13:10;17.80;99.90
22065;DHT22;11197;53.110;8.468;2023-09-07T02:15:38;17.80;99.90
22065;DHT22;11197;53.110;8.468;2023-09-07T02:18:04;17.80;99.90
22065;DHT22;11197;53.110;8.468;2023-09-07T02:20:32;17.70;99.90
22065;DHT22;11197;53.110;8.468;2023-09-07T02:22:57;17.70;99.90
22065;DHT22;11197;53.110;8.468;2023-09-07T02:25:23;17.70;99.90
22065;DHT22;11197;53.110;8.468;2023-09-07T02:27:49;17.60;99.90
22065;DHT22;11197;53.110;8.468;2023-09-07T02:30:15;17.60;99.90
22065;DHT22;11197;53.110;8.468;2023-09-07T02:32:42;17.60;99.90
22065;DHT22;11197;53.110;8.468;2023-09-07T02:35:08;17.60;99.90
22065;DHT22;11197;53.110;8.468;2023-09-07T02:37:35;17.50;99.90
22065;DHT22;11197;53.110;8.468;2023-09-07T02:40:01;17.50;99.90
22065;DHT22;11197;53.110;8.468;2023-09-07T02:42:27;17.50;99.90
22065;DHT22;11197;53.110;8.468;2023-09-07T02:44:53;17.50;99.90
22065;DHT22;11197;53.110;8.468;2023-09-07T02:47:19;17.50;99.90
22065;DHT22;11197;53.110;8.468;2023-09-07T02:49:44;17.50;99.90
22065;DHT22;11197;53.110;8.468;2023-09-07T02:52:10;17.50;99.90
22065;DHT22;11197;53.110;8.468;2023-09-07T02:54:36;17.50;99.90
22065;DHT22;11197;53.110;8.468;2023-09-07T02:57:01;17.40;99.90
22065;DHT22;11197;53.110;8.468;2023-09-07T02:59:28;17.40;99.90
22065;DHT22;11197;53.110;8.468;2023-09-07T03:01:55;17.40;99.90
22065;DHT22;11197;53.110;8.468;2023-09-07T03:04:20;17.40;99.90
22065;DHT22;11197;53.110;8.468;2023-09-07T03:06:46;17.40;99.90
22065;DHT22;11197;53.110;8.468;2023-09-07T03:09:12;17.40;99.90
22065;DHT22;11197;53.110;8.468;2023-09-07T03:11:38;17.40;99.90
22065;DHT22;11197;53.110;8.468;2023-09-07T03:14:04;17.40;99.90
22065;DHT22;11197;53.110;8.468;2023-09-07T03:16:30;17.30;99.90
22065;DHT22;11197;53.110;8.468;2023-09-07T03:18:56;17.30;99.90
22065;DHT22;11197;53.110;8.468;2023-09-07T03:21:21;17.30;99.90
22065;DHT22;11197;53.110;8.468;2023-09-07T03:23:52;17.30;99.90
22065;DHT22;11197;53.110;8.468;2023-09-07T03:26:18;17.30;99.90
22065;DHT22;11197;53.110;8.468;2023-09-07T03:28:44;17.30;99.90
22065;DHT22;11197;53.110;8.468;2023-09-07T03:31:11;17.20;99.90
22065;DHT22;11197;53.110;8.468;2023-09-07T03:33:37;17.20;99.90
22065;DHT22;11197;53.110;8.468;2023-09-07T03:36:02;17.20;99.90
22065;DHT22;11197;53.110;8.468;2023-09-07T03:38:28;17.20;99.90
22065;DHT22;11197;53.110;8.468;2023-09-07T03:40:55;17.20;99.90
22065;DHT22;11197;53.110;8.468;2023-09-07T03:43:21;17.20;99.90
22065;DHT22;11197;53.110;8.468;2023-09-07T03:45:46;17.20;99.90
22065;DHT22;11197;53.110;8.468;2023-09-07T03:48:12;17.20;99.90
22065;DHT22;11197;53.110;8.468;2023-09-07T03:50:38;17.10;99.90
22065;DHT22;11197;53.110;8.468;2023-09-07T03:53:04;17.10;99.90
22065;DHT22;11197;53.110;8.468;2023-09-07T03:55:29;17.10;99.90
22065;DHT22;11197;53.110;8.468;2023-09-07T03:57:55;17.00;99.90
22065;DHT22;11197;53.110;8.468;2023-09-07T04:00:21;17.00;99.90
22065;DHT22;11197;53.110;8.468;2023-09-07T04:02:49;17.00;99.90
22065;DHT22;11197;53.110;8.468;2023-09-07T04:05:15;17.00;99.90
22065;DHT22;11197;53.110;8.468;2023-09-07T04:07:40;16.90;99.90
22065;DHT22;11197;53.110;8.468;2023-09-07T04:10:06;16.90;99.90
22065;DHT22;11197;53.110;8.468;2023-09-07T04:12:32;16.90;99.90
22065;DHT22;11197;53.110;8.468;2023-09-07T04:15:02;16.90;99.90
22065;DHT22;11197;53.110;8.468;2023-09-07T04:17:28;16.90;99.90
22065;DHT22;11197;53.110;8.468;2023-09-07T04:19:54;16.90;99.90
22065;DHT22;11197;53.110;8.468;2023-09-07T04:22:20;16.90;99.90
22065;DHT22;11197;53.110;8.468;2023-09-07T04:24:47;16.90;99.90
22065;DHT22;11197;53.110;8.468;2023-09-07T04:27:14;16.80;99.90
22065;DHT22;11197;53.110;8.468;2023-09-07T04:29:40;16.80;99.90
22065;DHT22;11197;53.110;8.468;2023-09-07T04:32:06;16.80;99.90
22065;DHT22;11197;53.110;8.468;2023-09-07T04:34:31;16.80;99.90
22065;DHT22;11197;53.110;8.468;2023-09-07T04:36:57;16.80;99.90
22065;DHT22;11197;53.110;8.468;2023-09-07T04:39:23;16.80;99.90
22065;DHT22;11197;53.110;8.468;2023-09-07T04:41:49;16.80;99.90
22065;DHT22;11197;53.110;8.468;2023-09-07T04:44:15;16.80;99.90
22065;DHT22;11197;53.110;8.468;2023-09-07T04:46:41;16.80;99.90
22065;DHT22;11197;53.110;8.468;2023-09-07T04:49:07;16.80;99.90
22065;DHT22;11197;53.110;8.468;2023-09-07T04:51:33;16.80;99.90
22065;DHT22;11197;53.110;8.468;2023-09-07T04:53:59;16.80;99.90
22065;DHT22;11197;53.110;8.468;2023-09-07T04:56:24;16.80;99.90
22065;DHT22;11197;53.110;8.468;2023-09-07T04:58:51;16.80;99.90
22065;DHT22;11197;53.110;8.468;2023-09-07T05:01:17;16.80;99.90
22065;DHT22;11197;53.110;8.468;2023-09-07T05:03:42;16.80;99.90
22065;DHT22;11197;53.110;8.468;2023-09-07T05:06:09;16.80;99.90
22065;DHT22;11197;53.110;8.468;2023-09-07T05:08:34;16.80;99.90
22065;DHT22;11197;53.110;8.468;2023-09-07T05:11:02;16.80;99.90
22065;DHT22;11197;53.110;8.468;2023-09-07T05:13:30;16.80;99.90
22065;DHT22;11197;53.110;8.468;2023-09-07T05:15:58;16.80;99.90
22065;DHT22;11197;53.110;8.468;2023-09-07T05:18:24;16.80;99.90
22065;DHT22;11197;53.110;8.468;2023-09-07T05:20:50;16.70;99.90
22065;DHT22;11197;53.110;8.468;2023-09-07T05:23:17;16.80;99.90
22065;DHT22;11197;53.110;8.468;2023-09-07T05:25:46;16.70;99.90
22065;DHT22;11197;53.110;8.468;2023-09-07T05:28:13;16.70;99.90
22065;DHT22;11197;53.110;8.468;2023-09-07T05:30:40;16.70;99.90
22065;DHT22;11197;53.110;8.468;2023-09-07T05:33:06;16.70;99.90
22065;DHT22;11197;53.110;8.468;2023-09-07T05:35:32;16.80;99.90
22065;DHT22;11197;53.110;8.468;2023-09-07T05:37:58;16.80;99.90
22065;DHT22;11197;53.110;8.468;2023-09-07T05:40:24;16.70;99.90
22065;DHT22;11197;53.110;8.468;2023-09-07T05:42:51;16.80;99.90
22065;DHT22;11197;53.110;8.468;2023-09-07T05:45:17;16.80;99.90
22065;DHT22;11197;53.110;8.468;2023-09-07T05:47:42;16.80;99.90
22065;DHT22;11197;53.110;8.468;2023-09-07T05:50:08;16.80;99.90
22065;DHT22;11197;53.110;8.468;2023-09-07T05:52:34;16.80;99.90
22065;DHT22;11197;53.110;8.468;2023-09-07T05:55:00;16.70;99.90
22065;DHT22;11197;53.110;8.468;2023-09-07T05:57:25;16.80;99.90
22065;DHT22;11197;53.110;8.468;2023-09-07T05:59:51;16.80;99.90
22065;DHT22;11197;53.110;8.468;2023-09-07T06:02:17;16.80;99.90
22065;DHT22;11197;53.110;8.468;2023-09-07T06:04:42;16.80;99.90
22065;DHT22;11197;53.110;8.468;2023-09-07T06:07:09;16.80;99.90
22065;DHT22;11197;53.110;8.468;2023-09-07T06:09:34;16.80;99.90
22065;DHT22;11197;53.110;8.468;2023-09-07T06:12:02;16.80;99.90
22065;DHT22;11197;53.110;8.468;2023-09-07T06:14:29;16.80;99.90
22065;DHT22;11197;53.110;8.468;2023-09-07T06:16:54;16.90;99.90
22065;DHT22;11197;53.110;8.468;2023-09-07T06:19:20;16.90;99.90
22065;DHT22;11197;53.110;8.468;2023-09-07T06:21:46;16.90;99.90
22065;DHT22;11197;53.110;8.468;2023-09-07T06:24:12;16.90;99.90
22065;DHT22;11197;53.110;8.468;2023-09-07T06:26:37;16.90;99.90
22065;DHT22;11197;53.110;8.468;2023-09-07T06:29:04;16.90;99.90
22065;DHT22;11197;53.110;8.468;2023-09-07T06:31:29;16.90;99.90
22065;DHT22;11197;53.110;8.468;2023-09-07T06:33:55;16.90;99.90
22065;DHT22;11197;53.110;8.468;2023-09-07T06:36:21;16.90;99.90
22065;DHT22;11197;53.110;8.468;2023-09-07T06:38:46;17.00;99.90
22065;DHT22;11197;53.110;8.468;2023-09-07T06:41:12;17.00;99.90
22065;DHT22;11197;53.110;8.468;2023-09-07T06:43:38;17.00;99.90
22065;DHT22;11197;53.110;8.468;2023-09-07T06:46:07;17.00;99.90
22065;DHT22;11197;53.110;8.468;2023-09-07T06:48:34;17.00;99.90
22065;DHT22;11197;53.110;8.468;2023-09-07T06:51:03;17.10;99.90
22065;DHT22;11197;53.110;8.468;2023-09-07T06:53:30;17.10;99.90
22065;DHT22;11197;53.110;8.468;2023-09-07T06:55:59;17.10;99.90
22065;DHT22;11197;53.110;8.468;2023-09-07T06:58:26;17.20;99.90
22065;DHT22;11197;53.110;8.468;2023-09-07T07:00:52;17.20;99.90
22065;DHT22;11197;53.110;8.468;2023-09-07T07:03:18;17.30;99.90
22065;DHT22;11197;53.110;8.468;2023-09-07T07:05:44;17.40;99.90
22065;DHT22;11197;53.110;8.468;2023-09-07T07:08:10;17.40;99.90
22065;DHT22;11197;53.110;8.468;2023-09-07T07:10:35;17.50;99.90
22065;DHT22;11197;53.110;8.468;2023-09-07T07:13:01;17.60;99.90
22065;DHT22;11197;53.110;8.468;2023-09-07T07:15:27;17.70;99.90
22065;DHT22;11197;53.110;8.468;2023-09-07T07:17:53;17.70;99.90
22065;DHT22;11197;53.110;8.468;2023-09-07T07:20:19;17.80;99.90
22065;DHT22;11197;53.110;8.468;2023-09-07T07:22:44;17.90;99.90
22065;DHT22;11197;53.110;8.468;2023-09-07T07:25:13;18.00;99.90
22065;DHT22;11197;53.110;8.468;2023-09-07T07:27:39;18.10;99.90
22065;DHT22;11197;53.110;8.468;2023-09-07T07:30:06;18.30;99.90
22065;DHT22;11197;53.110;8.468;2023-09-07T07:32:32;18.40;99.90
22065;DHT22;11197;53.110;8.468;2023-09-07T07:34:57;18.50;99.90
22065;DHT22;11197;53.110;8.468;2023-09-07T07:37:23;18.60;99.90
22065;DHT22;11197;53.110;8.468;2023-09-07T07:39:50;18.70;99.90
22065;DHT22;11197;53.110;8.468;2023-09-07T07:42:16;18.80;99.90
22065;DHT22;11197;53.110;8.468;2023-09-07T07:44:44;18.80;99.90
22065;DHT22;11197;53.110;8.468;2023-09-07T07:47:11;19.00;99.90
22065;DHT22;11197;53.110;8.468;2023-09-07T07:49:36;19.00;99.90
22065;DHT22;11197;53.110;8.468;2023-09-07T07:52:02;19.10;99.90
22065;DHT22;11197;53.110;8.468;2023-09-07T07:54:28;19.20;99.90
22065;DHT22;11197;53.110;8.468;2023-09-07T07:56:56;19.30;99.90
22065;DHT22;11197;53.110;8.468;2023-09-07T07:59:22;19.40;99.90
22065;DHT22;11197;53.110;8.468;2023-09-07T08:01:48;19.50;99.90
22065;DHT22;11197;53.110;8.468;2023-09-07T08:04:13;19.60;99.90
22065;DHT22;11197;53.110;8.468;2023-09-07T08:06:39;19.60;99.90
22065;DHT22;11197;53.110;8.468;2023-09-07T08:09:05;19.80;99.90
22065;DHT22;11197;53.110;8.468;2023-09-07T08:11:31;19.90;99.90
22065;DHT22;11197;53.110;8.468;2023-09-07T08:13:57;19.90;99.90
22065;DHT22;11197;53.110;8.468;2023-09-07T08:16:23;20.00;99.90
22065;DHT22;11197;53.110;8.468;2023-09-07T08:18:48;20.00;99.90
22065;DHT22;11197;53.110;8.468;2023-09-07T08:21:15;20.10;99.90
22065;DHT22;11197;53.110;8.468;2023-09-07T08:23:43;20.10;99.90
22065;DHT22;11197;53.110;8.468;2023-09-07T08:26:09;20.20;99.90
22065;DHT22;11197;53.110;8.468;2023-09-07T08:28:40;20.30;99.90
22065;DHT22;11197;53.110;8.468;2023-09-07T08:31:06;20.30;99.90
22065;DHT22;11197;53.110;8.468;2023-09-07T08:33:32;20.40;99.90
22065;DHT22;11197;53.110;8.468;2023-09-07T08:36:00;20.50;99.90
22065;DHT22;11197;53.110;8.468;2023-09-07T08:38:26;20.50;99.90
22065;DHT22;11197;53.110;8.468;2023-09-07T08:40:54;20.50;99.90
22065;DHT22;11197;53.110;8.468;2023-09-07T08:43:21;20.60;99.90
22065;DHT22;11197;53.110;8.468;2023-09-07T08:45:51;20.60;99.90
22065;DHT22;11197;53.110;8.468;2023-09-07T08:48:18;20.70;99.90
22065;DHT22;11197;53.110;8.468;2023-09-07T08:50:46;20.70;99.90
22065;DHT22;11197;53.110;8.468;2023-09-07T08:53:18;20.80;99.90
22065;DHT22;11197;53.110;8.468;2023-09-07T08:55:45;20.90;99.90
22065;DHT22;11197;53.110;8.468;2023-09-07T08:58:11;20.90;99.90
22065;DHT22;11197;53.110;8.468;2023-09-07T09:00:37;21.00;99.90
22065;DHT22;11197;53.110;8.468;2023-09-07T09:03:04;21.00;99.90
22065;DHT22;11197;53.110;8.468;2023-09-07T09:05:30;21.10;99.90
22065;DHT22;11197;53.110;8.468;2023-09-07T09:08:04;21.10;99.90
22065;DHT22;11197;53.110;8.468;2023-09-07T09:10:30;21.30;99.90
22065;DHT22;11197;53.110;8.468;2023-09-07T09:12:55;21.30;99.90
22065;DHT22;11197;53.110;8.468;2023-09-07T09:15:22;21.40;99.90
22065;DHT22;11197;53.110;8.468;2023-09-07T09:17:48;21.40;99.90
22065;DHT22;11197;53.110;8.468;2023-09-07T09:20:26;21.40;99.90
22065;DHT22;11197;53.110;8.468;2023-09-07T09:22:55;21.50;99.90
22065;DHT22;11197;53.110;8.468;2023-09-07T09:25:21;21.50;99.90
22065;DHT22;11197;53.110;8.468;2023-09-07T09:27:47;21.60;99.90
22065;DHT22;11197;53.110;8.468;2023-09-07T09:30:14;21.70;99.90
22065;DHT22;11197;53.110;8.468;2023-09-07T09:32:42;21.70;99.90
22065;DHT22;11197;53.110;8.468;2023-09-07T09:35:08;21.90;99.90
22065;DHT22;11197;53.110;8.468;2023-09-07T09:37:43;21.90;99.90
22065;DHT22;11197;53.110;8.468;2023-09-07T09:40:09;22.10;99.90
22065;DHT22;11197;53.110;8.468;2023-09-07T09:42:35;22.10;99.90
22065;DHT22;11197;53.110;8.468;2023-09-07T09:45:03;22.10;99.90
22065;DHT22;11197;53.110;8.468;2023-09-07T09:47:31;22.20;99.90
22065;DHT22;11197;53.110;8.468;2023-09-07T09:49:57;22.20;99.90
22065;DHT22;11197;53.110;8.468;2023-09-07T09:52:24;22.30;99.90
22065;DHT22;11197;53.110;8.468;2023-09-07T09:54:52;22.30;99.90
22065;DHT22;11197;53.110;8.468;2023-09-07T09:57:18;22.40;99.90
22065;DHT22;11197;53.110;8.468;2023-09-07T09:59:45;22.60;99.90
22065;DHT22;11197;53.110;8.468;2023-09-07T10:02:11;22.60;99.90
22065;DHT22;11197;53.110;8.468;2023-09-07T10:04:37;22.70;99.90
22065;DHT22;11197;53.110;8.468;2023-09-07T10:07:05;22.80;99.90
22065;DHT22;11197;53.110;8.468;2023-09-07T10:09:34;22.90;99.90
22065;DHT22;11197;53.110;8.468;2023-09-07T10:12:02;22.90;99.90
22065;DHT22;11197;53.110;8.468;2023-09-07T10:14:42;22.90;99.90
22065;DHT22;11197;53.110;8.468;2023-09-07T10:17:08;23.00;99.90
22065;DHT22;11197;53.110;8.468;2023-09-07T10:19:35;23.00;99.90
22065;DHT22;11197;53.110;8.468;2023-09-07T10:22:03;23.00;99.90
22065;DHT22;11197;53.110;8.468;2023-09-07T10:24:33;23.00;99.90
22065;DHT22;11197;53.110;8.468;2023-09-07T10:27:05;23.10;99.90
22065;DHT22;11197;53.110;8.468;2023-09-07T10:29:45;23.10;99.90
22065;DHT22;11197;53.110;8.468;2023-09-07T10:32:11;23.20;99.90
22065;DHT22;11197;53.110;8.468;2023-09-07T10:34:40;23.30;99.90
22065;DHT22;11197;53.110;8.468;2023-09-07T10:37:13;23.40;99.90
22065;DHT22;11197;53.110;8.468;2023-09-07T10:39:44;23.40;99.90
22065;DHT22;11197;53.110;8.468;2023-09-07T10:42:23;23.50;99.90
22065;DHT22;11197;53.110;8.468;2023-09-07T10:44:49;23.60;99.90
22065;DHT22;11197;53.110;8.468;2023-09-07T10:47:15;23.60;99.90
22065;DHT22;11197;53.110;8.468;2023-09-07T10:49:41;23.60;99.90
22065;DHT22;11197;53.110;8.468;2023-09-07T10:52:06;23.60;99.90
22065;DHT22;11197;53.110;8.468;2023-09-07T10:54:32;23.70;99.90
22065;DHT22;11197;53.110;8.468;2023-09-07T10:57:07;23.70;99.90
22065;DHT22;11197;53.110;8.468;2023-09-07T10:59:33;23.80;99.90
22065;DHT22;11197;53.110;8.468;2023-09-07T11:02:06;23.90;99.90
22065;DHT22;11197;53.110;8.468;2023-09-07T11:04:32;24.00;99.90
22065;DHT22;11197;53.110;8.468;2023-09-07T11:06:57;24.00;99.90
22065;DHT22;11197;53.110;8.468;2023-09-07T11:09:23;24.00;99.90
22065;DHT22;11197;53.110;8.468;2023-09-07T11:11:49;24.10;99.90
22065;DHT22;11197;53.110;8.468;2023-09-07T11:14:14;24.20;99.90
22065;DHT22;11197;53.110;8.468;2023-09-07T11:16:41;24.20;99.90
22065;DHT22;11197;53.110;8.468;2023-09-07T11:19:07;24.40;99.90
22065;DHT22;11197;53.110;8.468;2023-09-07T11:21:35;24.40;99.90
22065;DHT22;11197;53.110;8.468;2023-09-07T11:24:01;24.40;99.90
22065;DHT22;11197;53.110;8.468;2023-09-07T11:26:43;24.50;99.90
22065;DHT22;11197;53.110;8.468;2023-09-07T11:29:09;24.50;99.90
22065;DHT22;11197;53.110;8.468;2023-09-07T11:31:34;24.60;99.90
22065;DHT22;11197;53.110;8.468;2023-09-07T11:34:00;24.60;99.90
22065;DHT22;11197;53.110;8.468;2023-09-07T11:36:26;24.60;99.90
22065;DHT22;11197;53.110;8.468;2023-09-07T11:38:51;24.60;99.90
22065;DHT22;11197;53.110;8.468;2023-09-07T11:41:17;24.60;99.90
22065;DHT22;11197;53.110;8.468;2023-09-07T11:43:42;24.60;99.90
22065;DHT22;11197;53.110;8.468;2023-09-07T11:46:10;24.70;99.90
22065;DHT22;11197;53.110;8.468;2023-09-07T11:48:36;24.70;99.90
22065;DHT22;11197;53.110;8.468;2023-09-07T11:51:01;24.70;99.90
22065;DHT22;11197;53.110;8.468;2023-09-07T11:53:27;24.80;99.90
22065;DHT22;11197;53.110;8.468;2023-09-07T11:55:53;24.80;99.90
22065;DHT22;11197;53.110;8.468;2023-09-07T11:58:19;24.80;99.90
22065;DHT22;11197;53.110;8.468;2023-09-07T12:00:45;24.80;99.90
22065;DHT22;11197;53.110;8.468;2023-09-07T12:03:10;24.90;99.90
22065;DHT22;11197;53.110;8.468;2023-09-07T12:05:36;24.90;99.90
22065;DHT22;11197;53.110;8.468;2023-09-07T12:08:03;25.00;99.90
22065;DHT22;11197;53.110;8.468;2023-09-07T12:10:29;25.00;99.90
22065;DHT22;11197;53.110;8.468;2023-09-07T12:12:55;25.10;99.90
22065;DHT22;11197;53.110;8.468;2023-09-07T12:15:20;25.10;99.90
22065;DHT22;11197;53.110;8.468;2023-09-07T12:17:46;25.20;99.90
22065;DHT22;11197;53.110;8.468;2023-09-07T12:20:13;25.20;99.90
22065;DHT22;11197;53.110;8.468;2023-09-07T12:22:40;25.20;99.90
22065;DHT22;11197;53.110;8.468;2023-09-07T12:25:06;25.20;99.90
22065;DHT22;11197;53.110;8.468;2023-09-07T12:27:35;25.20;99.90
22065;DHT22;11197;53.110;8.468;2023-09-07T12:30:02;25.40;99.90
22065;DHT22;11197;53.110;8.468;2023-09-07T12:32:28;25.40;99.90
22065;DHT22;11197;53.110;8.468;2023-09-07T12:34:53;25.40;99.90
22065;DHT22;11197;53.110;8.468;2023-09-07T12:37:19;25.40;99.90
22065;DHT22;11197;53.110;8.468;2023-09-07T12:39:49;25.40;99.90
22065;DHT22;11197;53.110;8.468;2023-09-07T12:42:15;25.40;99.90
22065;DHT22;11197;53.110;8.468;2023-09-07T12:44:41;25.50;99.90
22065;DHT22;11197;53.110;8.468;2023-09-07T12:47:07;25.50;99.90
22065;DHT22;11197;53.110;8.468;2023-09-07T12:49:33;25.50;99.90
22065;DHT22;11197;53.110;8.468;2023-09-07T12:51:59;25.50;99.90
22065;DHT22;11197;53.110;8.468;2023-09-07T12:54:25;25.50;99.90
22065;DHT22;11197;53.110;8.468;2023-09-07T12:56:51;25.50;99.90
22065;DHT22;11197;53.110;8.468;2023-09-07T12:59:18;25.60;99.90
22065;DHT22;11197;53.110;8.468;2023-09-07T13:01:43;25.60;99.90
22065;DHT22;11197;53.110;8.468;2023-09-07T13:04:09;25.60;99.90
22065;DHT22;11197;53.110;8.468;2023-09-07T13:06:37;25.60;99.90
22065;DHT22;11197;53.110;8.468;2023-09-07T13:09:03;25.60;99.90
22065;DHT22;11197;53.110;8.468;2023-09-07T13:11:30;25.70;99.90
22065;DHT22;11197;53.110;8.468;2023-09-07T13:13:56;25.70;99.90
22065;DHT22;11197;53.110;8.468;2023-09-07T13:16:22;25.80;99.90
22065;DHT22;11197;53.110;8.468;2023-09-07T13:18:47;25.90;99.90
22065;DHT22;11197;53.110;8.468;2023-09-07T13:21:13;25.90;99.90
22065;DHT22;11197;53.110;8.468;2023-09-07T13:23:39;26.00;99.90
22065;DHT22;11197;53.110;8.468;2023-09-07T13:26:06;26.00;99.90
22065;DHT22;11197;53.110;8.468;2023-09-07T13:28:32;26.10;99.90
22065;DHT22;11197;53.110;8.468;2023-09-07T13:30:58;26.10;99.90
22065;DHT22;11197;53.110;8.468;2023-09-07T13:33:23;26.20;99.90
22065;DHT22;11197;53.110;8.468;2023-09-07T13:35:50;26.20;99.90
22065;DHT22;11197;53.110;8.468;2023-09-07T13:38:16;26.20;99.90
22065;DHT22;11197;53.110;8.468;2023-09-07T13:40:42;26.20;99.90
22065;DHT22;11197;53.110;8.468;2023-09-07T13:43:08;26.30;99.90
22065;DHT22;11197;53.110;8.468;2023-09-07T13:45:34;26.30;99.90
22065;DHT22;11197;53.110;8.468;2023-09-07T13:48:00;26.40;99.90
22065;DHT22;11197;53.110;8.468;2023-09-07T13:50:28;26.40;99.90
22065;DHT22;11197;53.110;8.468;2023-09-07T13:52:55;26.50;99.90
22065;DHT22;11197;53.110;8.468;2023-09-07T13:55:22;26.50;99.90
22065;DHT22;11197;53.110;8.468;2023-09-07T13:57:48;26.50;99.90
22065;DHT22;11197;53.110;8.468;2023-09-07T14:00:14;26.50;99.90
22065;DHT22;11197;53.110;8.468;2023-09-07T14:02:39;26.60;99.90
22065;DHT22;11197;53.110;8.468;2023-09-07T14:05:05;26.60;99.90
22065;DHT22;11197;53.110;8.468;2023-09-07T14:07:31;26.70;99.90
22065;DHT22;11197;53.110;8.468;2023-09-07T14:09:57;26.70;99.90
22065;DHT22;11197;53.110;8.468;2023-09-07T14:12:23;26.80;99.90
22065;DHT22;11197;53.110;8.468;2023-09-07T14:14:49;26.80;99.90
22065;DHT22;11197;53.110;8.468;2023-09-07T14:17:15;26.80;99.90
22065;DHT22;11197;53.110;8.468;2023-09-07T14:19:41;26.80;99.90
22065;DHT22;11197;53.110;8.468;2023-09-07T14:22:07;26.90;99.90
22065;DHT22;11197;53.110;8.468;2023-09-07T14:24:33;26.90;99.90
22065;DHT22;11197;53.110;8.468;2023-09-07T14:26:58;26.90;99.90
22065;DHT22;11197;53.110;8.468;2023-09-07T14:29:24;27.00;99.90
22065;DHT22;11197;53.110;8.468;2023-09-07T14:31:59;27.00;99.90
22065;DHT22;11197;53.110;8.468;2023-09-07T14:34:32;27.10;99.90
22065;DHT22;11197;53.110;8.468;2023-09-07T14:37:01;27.10;99.90
22065;DHT22;11197;53.110;8.468;2023-09-07T14:39:27;27.10;99.90
22065;DHT22;11197;53.110;8.468;2023-09-07T14:41:53;27.10;99.90
22065;DHT22;11197;53.110;8.468;2023-09-07T14:44:19;27.20;99.90
22065;DHT22;11197;53.110;8.468;2023-09-07T14:46:45;27.20;99.90
22065;DHT22;11197;53.110;8.468;2023-09-07T14:49:15;27.20;99.90
22065;DHT22;11197;53.110;8.468;2023-09-07T14:51:41;27.30;99.90
22065;DHT22;11197;53.110;8.468;2023-09-07T14:54:06;27.30;99.90
22065;DHT22;11197;53.110;8.468;2023-09-07T14:56:32;27.30;99.90
22065;DHT22;11197;53.110;8.468;2023-09-07T14:59:01;27.40;99.90
22065;DHT22;11197;53.110;8.468;2023-09-07T15:01:27;27.30;99.90
22065;DHT22;11197;53.110;8.468;2023-09-07T15:03:53;27.40;99.90
22065;DHT22;11197;53.110;8.468;2023-09-07T15:06:18;27.40;99.90
22065;DHT22;11197;53.110;8.468;2023-09-07T15:08:45;27.40;99.90
22065;DHT22;11197;53.110;8.468;2023-09-07T15:11:10;27.40;99.90
22065;DHT22;11197;53.110;8.468;2023-09-07T15:13:38;27.40;99.90
22065;DHT22;11197;53.110;8.468;2023-09-07T15:16:05;27.40;99.90
22065;DHT22;11197;53.110;8.468;2023-09-07T15:18:30;27.50;99.90
22065;DHT22;11197;53.110;8.468;2023-09-07T15:20:57;27.50;99.90
22065;DHT22;11197;53.110;8.468;2023-09-07T15:23:23;27.50;99.90
22065;DHT22;11197;53.110;8.468;2023-09-07T15:25:49;27.50;99.90